PXO weather

Porto Santo Airport
Vila Baleira, Autonomous Region of Madeira, Portugal

Public forecast

Using degrees Celsius for public forecast. Weather courtesy of forecast.io.

METAR (pilot weather report)

Retrieved 2019/05/24 06:30 UTC (0 seconds ago):

LPPS 240630Z 04011KT 360V070 9999 BKN014 18/13 Q1022

TAF (pilot weather forecast)

Retrieved 2019/05/24 06:18 UTC (4 seconds ago):

TAF LPPS 240500Z 2406/2512 03015KT 9999 SCT015 TEMPO 2406/2409 SCT012 BKN030 BECMG 2412/2415 SCT015 BKN030